Time;durP1;ratioP1;P1;durP2;ratioP2;P2;SDS_P1;SDS_P2;PMS_P1;PMS_P2;Temp;Humidity;BMP_temperature;BMP_pressure;BME280_temperature;BME280_humidity;BME280_pressure;Samples;Min_cycle;Max_cycle;Signal;HPM_P1;HPM_P2
2021/04/26 00:00:05;;;;;;;1.27;0.30;;;;;;;4.97;64.39;99656.82;1752404;81;21499;-52
2021/04/26 00:02:35;;;;;;;0.67;0.30;;;;;;;4.93;64.68;99654.22;1751338;81;21283;-54
2021/04/26 00:05:05;;;;;;;1.43;0.40;;;;;;;4.91;65.14;99656.08;1757825;79;21118;-53
2021/04/26 00:07:34;;;;;;;0.80;0.20;;;;;;;4.87;65.49;99654.40;1777904;79;21134;-53
2021/04/26 00:10:03;;;;;;;1.30;0.27;;;;;;;4.86;65.97;99658.44;1782002;79;21142;-53
2021/04/26 00:12:30;;;;;;;2.47;0.30;;;;;;;4.82;66.40;99663.45;1750720;79;21414;-52
2021/04/26 00:15:04;;;;;;;0.80;0.30;;;;;;;4.73;66.75;99652.56;1741369;81;21111;-53
2021/04/26 00:17:32;;;;;;;0.60;0.30;;;;;;;4.69;67.21;99658.00;1779453;79;21134;-53
2021/04/26 00:19:59;;;;;;;0.40;0.20;;;;;;;4.63;67.68;99656.38;1780080;79;21130;-54
2021/04/26 00:22:27;;;;;;;0.40;0.30;;;;;;;4.61;67.95;99665.32;1764878;79;21142;-53
2021/04/26 00:24:56;;;;;;;0.70;0.30;;;;;;;4.58;68.29;99660.09;1763734;79;21103;-52
2021/04/26 00:27:23;;;;;;;1.37;0.30;;;;;;;4.58;68.66;99663.63;1760921;79;21703;-52
2021/04/26 00:29:53;;;;;;;0.73;0.30;;;;;;;4.58;68.97;99664.09;1748378;81;21201;-53
2021/04/26 00:32:21;;;;;;;1.30;0.20;;;;;;;4.60;69.13;99665.77;1780835;79;21712;-52
2021/04/26 00:34:48;;;;;;;1.37;0.50;;;;;;;4.59;69.45;99661.84;1756840;79;21546;-53
2021/04/26 00:37:15;;;;;;;0.40;0.30;;;;;;;4.59;69.77;99656.52;1754165;79;21213;-53
2021/04/26 00:39:42;;;;;;;0.67;0.40;;;;;;;4.56;69.91;99656.13;1771516;79;23498;-53
2021/04/26 00:42:11;;;;;;;2.00;0.30;;;;;;;4.52;70.20;99660.64;1751493;80;21206;-52
2021/04/26 00:44:39;;;;;;;1.00;0.30;;;;;;;4.49;70.58;99662.53;1755235;80;21481;-52
2021/04/26 00:47:07;;;;;;;0.47;0.30;;;;;;;4.43;70.60;99657.33;1770160;79;21213;-53
2021/04/26 00:49:35;;;;;;;0.40;0.30;;;;;;;4.36;70.91;99658.40;1770674;79;21114;-52
2021/04/26 00:52:03;;;;;;;1.13;0.37;;;;;;;4.32;71.04;99650.08;1746951;80;21241;-52
2021/04/26 00:54:31;;;;;;;0.53;0.30;;;;;;;4.28;71.25;99650.59;1738874;81;21613;-52
2021/04/26 00:56:58;;;;;;;2.50;0.30;;;;;;;4.22;71.31;99645.42;1741729;81;21194;-52
2021/04/26 00:59:26;;;;;;;0.83;0.30;;;;;;;4.18;71.59;99646.39;1716213;80;21469;-52
2021/04/26 01:01:54;;;;;;;0.77;0.40;;;;;;;4.18;71.61;99641.95;1775049;79;22156;-52
2021/04/26 01:04:21;;;;;;;0.57;0.30;;;;;;;4.18;71.73;99638.41;1746948;80;21226;-51
2021/04/26 01:06:48;;;;;;;0.40;0.30;;;;;;;4.14;71.74;99634.08;1744540;80;21171;-51
2021/04/26 01:09:17;;;;;;;0.40;0.30;;;;;;;4.13;71.96;99644.31;1771388;79;21103;-51
2021/04/26 01:11:58;;;;;;;0.47;0.27;;;;;;;4.13;72.03;99654.52;1774948;79;21111;-52
2021/04/26 01:14:42;;;;;;;0.63;0.20;;;;;;;4.15;72.15;99654.03;1749112;80;21130;-51
2021/04/26 01:17:18;;;;;;;1.13;0.23;;;;;;;4.20;72.25;99643.25;1770649;79;21668;-51
2021/04/26 01:20:06;;;;;;;0.70;0.30;;;;;;;4.24;72.29;99636.95;1773341;79;21643;-51
2021/04/26 01:23:21;;;;;;;1.33;0.30;;;;;;;4.29;72.37;99626.16;1771063;79;21206;-51
2021/04/26 01:25:56;;;;;;;1.00;0.23;;;;;;;4.32;72.42;99612.77;1772483;79;21202;-51
2021/04/26 01:29:13;;;;;;;0.40;0.20;;;;;;;4.33;72.46;99604.75;1747338;81;21218;-51
2021/04/26 01:31:57;;;;;;;0.60;0.30;;;;;;;4.33;72.54;99597.20;1770987;79;21411;-51
2021/04/26 01:34:26;;;;;;;1.13;0.30;;;;;;;4.29;72.61;99597.73;1745984;80;21196;-51
2021/04/26 01:36:56;;;;;;;0.50;0.30;;;;;;;4.26;72.66;99592.47;1767649;80;21134;-51
2021/04/26 01:39:23;;;;;;;1.10;0.20;;;;;;;4.24;72.74;99602.77;1775041;79;21630;-51
2021/04/26 01:41:51;;;;;;;0.40;0.20;;;;;;;4.22;72.91;99595.26;1749282;79;21479;-51
2021/04/26 01:44:19;;;;;;;0.60;0.20;;;;;;;4.21;72.95;99600.16;1748934;80;22117;-50
2021/04/26 01:46:46;;;;;;;0.30;0.10;;;;;;;4.23;73.00;99607.67;1753567;80;21627;-51
2021/04/26 01:49:15;;;;;;;0.30;0.20;;;;;;;4.24;73.06;99596.98;1776337;79;21170;-51
2021/04/26 01:51:42;;;;;;;1.53;0.20;;;;;;;4.26;73.05;99591.59;1747279;80;21135;-51
2021/04/26 01:54:10;;;;;;;0.70;0.20;;;;;;;4.26;73.05;99588.47;1752938;79;21202;-51
2021/04/26 01:56:37;;;;;;;0.70;0.20;;;;;;;4.27;73.11;99590.22;1778226;79;21979;-51
2021/04/26 01:59:07;;;;;;;0.30;0.20;;;;;;;4.25;73.17;99593.41;1753729;79;21221;-51
2021/04/26 02:01:34;;;;;;;0.60;0.13;;;;;;;4.24;73.27;99596.98;1762358;79;21177;-51
2021/04/26 02:04:05;;;;;;;0.43;0.20;;;;;;;4.25;73.16;99604.06;1777233;78;21191;-50
2021/04/26 02:06:54;;;;;;;1.60;0.20;;;;;;;4.28;73.20;99597.77;1866908;75;26630;-51
2021/04/26 02:09:31;;;;;;;0.40;0.23;;;;;;;4.24;73.18;99603.64;1841492;76;21161;-51
2021/04/26 02:12:14;;;;;;;0.40;0.27;;;;;;;4.29;73.27;99600.84;1866683;75;27137;-51
2021/04/26 02:14:43;;;;;;;0.40;0.30;;;;;;;4.25;73.28;99597.86;1839846;76;21168;-51
2021/04/26 02:17:13;;;;;;;0.40;0.20;;;;;;;4.28;73.39;99588.44;1841784;76;21651;-51
2021/04/26 02:19:41;;;;;;;1.13;0.20;;;;;;;4.29;73.38;99578.20;1838742;76;20950;-51
2021/04/26 02:22:10;;;;;;;2.93;0.30;;;;;;;4.29;73.47;99570.20;1840816;76;21407;-51
2021/04/26 02:24:55;;;;;;;0.75;0.20;;;;;;;4.30;73.40;99574.63;1838918;76;20913;-51
2021/04/26 02:27:23;;;;;;;0.87;0.20;;;;;;;4.29;73.39;99565.75;1839530;76;21155;-51
2021/04/26 02:29:51;;;;;;;0.47;0.30;;;;;;;4.29;73.40;99559.09;1836337;76;21637;-51
2021/04/26 02:32:39;;;;;;;0.77;0.30;;;;;;;4.28;73.42;99553.34;1841338;76;21001;-50
2021/04/26 02:35:24;;;;;;;1.25;0.40;;;;;;;4.28;73.41;99545.80;1850848;75;27583;-51
2021/04/26 02:37:55;;;;;;;0.47;0.30;;;;;;;4.27;73.42;99543.59;1843789;76;20941;-50
2021/04/26 02:40:23;;;;;;;0.50;0.30;;;;;;;4.33;73.40;99525.27;1840532;75;21527;-50
2021/04/26 02:42:53;;;;;;;0.50;0.30;;;;;;;4.32;73.40;99531.05;1825765;75;21510;-49
2021/04/26 02:45:24;;;;;;;0.60;0.40;;;;;;;4.28;73.44;99510.71;1821698;77;21131;-49
2021/04/26 02:47:52;;;;;;;1.40;0.20;;;;;;;4.28;73.55;99499.18;1817993;77;21396;-49
2021/04/26 02:50:24;;;;;;;0.80;0.30;;;;;;;4.26;73.55;99491.67;1819429;77;21468;-49
2021/04/26 02:52:53;;;;;;;1.13;0.40;;;;;;;4.25;73.57;99493.50;1818155;77;21400;-50
2021/04/26 02:55:22;;;;;;;0.80;0.30;;;;;;;4.23;73.59;99484.66;1819904;77;20976;-49
2021/04/26 02:57:50;;;;;;;0.80;0.30;;;;;;;4.19;73.61;99488.31;1816587;77;21978;-49
2021/04/26 03:00:19;;;;;;;0.60;0.40;;;;;;;4.14;73.67;99491.56;1752911;80;21108;-49
2021/04/26 03:02:57;;;;;;;2.97;0.50;;;;;;;4.14;73.75;99484.45;1864230;74;26670;-50
2021/04/26 03:07:02;;;;;;;0.87;0.47;;;;;;;4.11;73.86;99485.85;1801132;78;26998;-50
2021/04/26 03:09:31;;;;;;;1.17;0.50;;;;;;;4.09;73.92;99489.45;1766855;79;21584;-50
2021/04/26 03:11:59;;;;;;;0.70;0.40;;;;;;;4.11;73.98;99496.50;1767620;79;21467;-49
2021/04/26 03:14:29;;;;;;;0.60;0.50;;;;;;;4.12;73.94;99514.70;1769144;79;20996;-51
2021/04/26 03:16:57;;;;;;;0.83;0.60;;;;;;;4.10;73.97;99509.86;1748921;79;21154;-50
2021/04/26 03:19:25;;;;;;;0.90;0.60;;;;;;;4.07;74.01;99500.64;1688435;82;21310;-49
2021/04/26 03:21:52;;;;;;;1.43;0.63;;;;;;;4.05;74.07;99492.68;1709907;83;21011;-49
2021/04/26 03:24:20;;;;;;;1.50;0.70;;;;;;;4.03;74.10;99486.52;1711505;83;22779;-50
2021/04/26 03:26:50;;;;;;;1.37;0.80;;;;;;;4.00;74.12;99480.38;1681383;81;21191;-50
2021/04/26 03:29:20;;;;;;;3.83;0.70;;;;;;;3.98;74.19;99480.90;1710930;83;22048;-50
2021/04/26 03:31:48;;;;;;;0.80;0.60;;;;;;;3.96;74.22;99478.27;1710355;82;21155;-49
2021/04/26 03:34:18;;;;;;;0.87;0.50;;;;;;;3.95;74.25;99477.84;1716477;82;21136;-50
2021/04/26 03:36:46;;;;;;;1.60;0.50;;;;;;;3.95;74.35;99487.17;1709810;82;21211;-50
2021/04/26 03:39:14;;;;;;;0.73;0.50;;;;;;;3.97;74.37;99492.46;1708927;82;21670;-49
2021/04/26 03:41:41;;;;;;;1.17;0.60;;;;;;;3.99;74.37;99501.30;1705521;82;21203;-50
2021/04/26 03:44:16;;;;;;;1.03;0.50;;;;;;;3.98;74.38;99508.41;1698437;83;21136;-49
2021/04/26 03:47:04;;;;;;;2.43;0.60;;;;;;;3.96;74.48;99517.34;1701377;82;22279;-50
2021/04/26 03:49:50;;;;;;;1.73;0.60;;;;;;;3.91;74.41;99521.92;1698873;83;21143;-50
2021/04/26 03:52:35;;;;;;;1.03;0.60;;;;;;;3.88;74.57;99528.19;1700807;82;21147;-50
2021/04/26 03:55:23;;;;;;;0.90;0.60;;;;;;;3.84;74.48;99521.17;1697063;82;21139;-51
2021/04/26 03:57:50;;;;;;;1.73;0.90;;;;;;;3.74;74.59;99525.84;1715876;82;21105;-50
2021/04/26 04:00:19;;;;;;;0.80;0.60;;;;;;;3.71;74.81;99531.72;1714698;81;21131;-50
2021/04/26 04:02:51;;;;;;;1.50;0.60;;;;;;;3.72;75.00;99534.80;1714976;81;21378;-50
2021/04/26 04:05:21;;;;;;;1.53;0.63;;;;;;;3.73;75.04;99529.90;1716999;81;21807;-50
2021/04/26 04:08:06;;;;;;;2.67;0.57;;;;;;;3.78;75.10;99533.31;1699503;82;21215;-49
2021/04/26 04:10:52;;;;;;;1.30;1.10;;;;;;;3.84;75.12;99529.16;1698605;82;21610;-51
2021/04/26 04:13:40;;;;;;;1.40;0.70;;;;;;;3.91;75.12;99522.80;1644680;85;21662;-50
2021/04/26 04:16:08;;;;;;;1.20;0.70;;;;;;;3.96;75.10;99520.00;1697300;82;21396;-50
2021/04/26 04:18:36;;;;;;;1.40;0.80;;;;;;;3.99;75.03;99514.61;1644408;85;21956;-50
2021/04/26 04:21:04;;;;;;;1.10;0.70;;;;;;;4.00;74.83;99515.00;1701359;82;21251;-49
2021/04/26 04:23:33;;;;;;;2.00;0.90;;;;;;;4.04;74.74;99526.00;1699224;82;21200;-51
2021/04/26 04:26:01;;;;;;;1.67;0.97;;;;;;;4.03;74.62;99526.91;1701334;82;21207;-49
2021/04/26 04:28:30;;;;;;;2.07;0.80;;;;;;;4.04;74.51;99530.00;1694987;82;22548;-50
2021/04/26 04:30:58;;;;;;;2.17;0.90;;;;;;;4.03;74.48;99529.13;1700893;82;21211;-50
2021/04/26 04:33:50;;;;;;;1.10;0.70;;;;;;;4.05;74.37;99524.64;1867080;75;26558;-51
2021/04/26 04:36:37;;;;;;;1.73;0.80;;;;;;;3.98;74.46;99531.05;1843227;76;21036;-49
2021/04/26 04:39:22;;;;;;;1.57;0.80;;;;;;;4.00;74.64;99531.86;1840834;77;23465;-50
2021/04/26 04:41:57;;;;;;;1.07;0.93;;;;;;;4.06;74.65;99538.84;1758039;77;21206;-50
2021/04/26 04:44:25;;;;;;;2.57;1.00;;;;;;;4.11;74.70;99538.25;1803774;77;21474;-50
2021/04/26 04:46:53;;;;;;;1.50;1.00;;;;;;;4.16;74.63;99537.23;1775678;78;21199;-51
2021/04/26 04:49:22;;;;;;;1.60;1.10;;;;;;;4.22;74.54;99537.98;1808811;77;21155;-49
2021/04/26 04:51:50;;;;;;;1.83;1.10;;;;;;;4.25;74.38;99534.80;1800581;77;21710;-50
2021/04/26 04:54:17;;;;;;;1.27;1.10;;;;;;;4.29;74.33;99535.56;1808079;77;21188;-50
2021/04/26 04:56:54;;;;;;;3.53;1.70;;;;;;;4.32;74.17;99518.18;1863233;74;27074;-51
2021/04/26 04:59:23;;;;;;;2.80;1.10;;;;;;;4.24;73.92;99526.84;1837126;75;20964;-51
2021/04/26 05:01:52;;;;;;;2.20;0.93;;;;;;;4.19;73.89;99526.94;1835349;75;22269;-51
2021/04/26 05:04:38;;;;;;;3.80;1.33;;;;;;;4.18;73.93;99524.73;1782035;78;21048;-50
2021/04/26 05:07:23;;;;;;;3.27;1.00;;;;;;;4.20;73.97;99528.69;1793352;77;21531;-53
2021/04/26 05:10:10;;;;;;;1.27;1.17;;;;;;;4.23;74.10;99531.28;1795912;77;21157;-52
2021/04/26 05:12:46;;;;;;;1.70;1.10;;;;;;;4.25;73.96;99538.79;1785805;77;20897;-49
2021/04/26 05:15:15;;;;;;;1.20;1.10;;;;;;;4.28;73.93;99536.48;1795318;77;21448;-52
2021/04/26 05:17:42;;;;;;;2.03;1.40;;;;;;;4.30;73.93;99535.98;1802939;77;21220;-50
2021/04/26 05:20:11;;;;;;;1.40;1.30;;;;;;;4.33;73.91;99536.80;1796509;77;21435;-51
2021/04/26 05:22:39;;;;;;;3.03;1.50;;;;;;;4.32;73.84;99530.17;1776667;78;21187;-52
2021/04/26 05:25:09;;;;;;;2.23;1.20;;;;;;;4.33;73.90;99531.92;1800539;77;21159;-52
2021/04/26 05:27:38;;;;;;;2.40;1.50;;;;;;;4.36;73.91;99540.69;1762370;79;21439;-51
2021/04/26 05:30:07;;;;;;;3.10;1.50;;;;;;;4.40;73.79;99533.05;1774741;78;21210;-48
2021/04/26 05:32:35;;;;;;;1.43;1.20;;;;;;;4.44;73.58;99537.81;1755353;78;21640;-52
2021/04/26 05:35:05;;;;;;;1.57;1.20;;;;;;;4.48;73.40;99539.50;1779743;78;21189;-51
2021/04/26 05:37:33;;;;;;;1.50;1.10;;;;;;;4.50;73.29;99530.55;1776480;78;21499;-49
2021/04/26 05:40:00;;;;;;;4.27;1.30;;;;;;;4.53;73.35;99537.12;1739885;79;21559;-52
2021/04/26 05:42:28;;;;;;;1.33;1.10;;;;;;;4.58;73.34;99539.67;1749079;79;21163;-51
2021/04/26 05:44:55;;;;;;;1.33;1.20;;;;;;;4.63;73.32;99546.20;1778692;79;22094;-49
2021/04/26 05:47:35;;;;;;;2.13;1.20;;;;;;;4.70;73.43;99544.65;1867827;74;26675;-50
2021/04/26 05:50:04;;;;;;;3.23;1.50;;;;;;;4.71;73.65;99538.86;1837089;75;21174;-50
2021/04/26 05:52:31;;;;;;;2.27;1.40;;;;;;;4.73;73.56;99535.70;1834238;75;22288;-49
2021/04/26 05:54:58;;;;;;;4.53;2.40;;;;;;;4.74;73.41;99536.13;1830744;75;21408;-51
2021/04/26 05:57:26;;;;;;;3.23;2.07;;;;;;;4.75;73.39;99537.41;1835783;75;21122;-50
2021/04/26 05:59:54;;;;;;;3.37;2.03;;;;;;;4.77;73.31;99529.34;1834174;75;21376;-51
2021/04/26 06:02:21;;;;;;;1.83;1.20;;;;;;;4.77;73.16;99530.67;1834807;75;20976;-50
2021/04/26 06:04:48;;;;;;;2.23;1.50;;;;;;;4.80;72.91;99535.94;1835530;75;21388;-50
2021/04/26 06:07:15;;;;;;;3.87;1.20;;;;;;;4.83;72.70;99527.86;1832478;75;20976;-50
2021/04/26 06:09:42;;;;;;;2.60;1.90;;;;;;;4.86;72.58;99529.09;1833401;75;21424;-50
2021/04/26 06:12:10;;;;;;;2.60;2.37;;;;;;;4.93;72.46;99521.35;1833466;75;21430;-51
2021/04/26 06:14:38;;;;;;;3.93;2.60;;;;;;;5.02;72.41;99525.55;1784376;78;21575;-50
2021/04/26 06:17:06;;;;;;;4.43;3.20;;;;;;;5.08;72.11;99516.89;1797094;77;22329;-50
2021/04/26 06:19:33;;;;;;;5.53;4.00;;;;;;;5.18;72.30;99517.04;1799038;77;21099;-50
2021/04/26 06:22:01;;;;;;;6.20;5.60;;;;;;;5.28;71.86;99519.81;1797987;77;22228;-50
2021/04/26 06:24:28;;;;;;;6.23;4.47;;;;;;;5.33;71.43;99518.36;1794376;77;21640;-51
2021/04/26 06:26:55;;;;;;;5.17;4.83;;;;;;;5.39;71.08;99525.28;1763499;78;21083;-51
2021/04/26 06:29:22;;;;;;;6.20;4.87;;;;;;;5.42;70.88;99526.08;1795735;77;22325;-50
2021/04/26 06:31:50;;;;;;;4.73;3.67;;;;;;;5.45;70.94;99530.42;1793105;77;21212;-51
2021/04/26 06:34:17;;;;;;;4.30;3.23;;;;;;;5.53;71.14;99527.09;1799698;77;21518;-51
2021/04/26 06:36:45;;;;;;;4.53;3.57;;;;;;;5.62;71.17;99523.64;1780748;78;21128;-50
2021/04/26 06:39:12;;;;;;;4.23;3.70;;;;;;;5.70;70.62;99524.27;1796637;77;21608;-50
2021/04/26 06:41:40;;;;;;;5.07;3.83;;;;;;;5.73;70.34;99521.97;1788920;77;21698;-50
2021/04/26 06:44:07;;;;;;;3.77;3.57;;;;;;;5.78;70.18;99528.52;1760226;79;21907;-50
2021/04/26 06:46:35;;;;;;;4.13;3.67;;;;;;;5.84;70.31;99521.17;1763371;78;21101;-50
2021/04/26 06:49:02;;;;;;;5.40;2.93;;;;;;;5.94;70.14;99518.65;1767135;79;21193;-50
2021/04/26 06:51:30;;;;;;;3.83;3.40;;;;;;;6.06;70.19;99520.89;1768407;78;21240;-50
2021/04/26 06:53:58;;;;;;;3.60;2.37;;;;;;;6.20;69.99;99516.44;1746317;79;21401;-50
2021/04/26 06:56:25;;;;;;;2.87;2.53;;;;;;;6.36;69.78;99515.44;1763278;78;21150;-51
2021/04/26 06:58:52;;;;;;;2.23;1.83;;;;;;;6.50;69.41;99517.61;1746762;80;21202;-50
2021/04/26 07:01:19;;;;;;;3.10;1.50;;;;;;;6.63;69.31;99509.58;1743586;79;21217;-51
2021/04/26 07:03:47;;;;;;;1.40;1.30;;;;;;;6.73;68.58;99514.52;1742320;79;21172;-51
2021/04/26 07:06:15;;;;;;;2.80;1.80;;;;;;;6.81;67.90;99504.87;1743099;79;22316;-50
2021/04/26 07:08:43;;;;;;;1.80;1.70;;;;;;;6.89;67.45;99509.47;1764251;78;21582;-51
2021/04/26 07:11:10;;;;;;;3.90;1.93;;;;;;;6.97;67.07;99514.09;1764206;78;21209;-50
2021/04/26 07:13:38;;;;;;;2.77;1.47;;;;;;;7.05;66.54;99508.45;1765772;78;21204;-50
2021/04/26 07:16:05;;;;;;;2.00;1.27;;;;;;;7.07;65.87;99504.77;1763652;78;21120;-50
2021/04/26 07:18:33;;;;;;;2.43;1.53;;;;;;;7.14;65.35;99510.78;1765378;78;21355;-51
2021/04/26 07:21:00;;;;;;;3.23;1.03;;;;;;;7.18;65.46;99507.92;1765446;78;21219;-50
2021/04/26 07:23:29;;;;;;;2.30;1.50;;;;;;;7.30;65.44;99509.73;1766910;78;21137;-50
2021/04/26 07:25:56;;;;;;;1.87;1.20;;;;;;;7.40;64.56;99507.11;1763149;80;21189;-50
2021/04/26 07:28:24;;;;;;;1.23;0.90;;;;;;;7.47;63.89;99508.60;1760068;79;21169;-51
2021/04/26 07:30:51;;;;;;;1.07;0.90;;;;;;;7.53;62.22;99503.87;1765984;80;22778;-50
2021/04/26 07:33:18;;;;;;;1.50;0.80;;;;;;;7.57;61.70;99499.27;1741481;80;21197;-51
2021/04/26 07:35:46;;;;;;;1.10;0.67;;;;;;;7.60;59.16;99496.45;1763546;78;21533;-51
2021/04/26 07:38:13;;;;;;;4.90;0.80;;;;;;;7.60;59.67;99494.65;1740132;79;21222;-51
2021/04/26 07:40:41;;;;;;;1.10;0.70;;;;;;;7.69;59.55;99492.06;1768826;80;21258;-51
2021/04/26 07:43:09;;;;;;;0.73;0.70;;;;;;;7.73;57.96;99488.81;1746328;79;21216;-50
2021/04/26 07:45:36;;;;;;;1.40;0.73;;;;;;;7.73;57.04;99488.34;1767318;78;21159;-52
2021/04/26 07:48:04;;;;;;;1.67;0.77;;;;;;;7.72;56.73;99489.73;1764121;78;21147;-50
2021/04/26 07:50:32;;;;;;;0.93;0.80;;;;;;;7.69;56.38;99492.53;1767579;78;21222;-50
2021/04/26 07:52:59;;;;;;;2.03;0.70;;;;;;;7.63;56.97;99495.47;1767010;78;21735;-50
2021/04/26 07:55:26;;;;;;;1.07;0.60;;;;;;;7.60;57.41;99494.65;1766579;79;22299;-50
2021/04/26 07:57:55;;;;;;;3.10;0.90;;;;;;;7.62;56.51;99490.58;1765729;80;21499;-50
2021/04/26 08:00:22;;;;;;;1.00;0.60;;;;;;;7.65;56.08;99490.46;1735135;80;21748;-50
2021/04/26 08:02:49;;;;;;;0.60;0.40;;;;;;;7.71;54.92;99483.50;1743020;79;21205;-51
2021/04/26 08:05:17;;;;;;;0.30;0.20;;;;;;;7.78;51.42;99481.44;1760609;79;21515;-51
2021/04/26 08:07:45;;;;;;;0.30;0.20;;;;;;;7.88;49.13;99485.49;1759208;80;21380;-50
2021/04/26 08:10:13;;;;;;;0.40;0.30;;;;;;;7.96;44.87;99476.66;1761212;80;21510;-49
2021/04/26 08:12:40;;;;;;;0.40;0.20;;;;;;;8.02;45.79;99476.39;1760967;78;21224;-50
2021/04/26 08:15:10;;;;;;;0.27;0.10;;;;;;;8.07;44.91;99474.41;1762548;79;21143;-51
2021/04/26 08:17:38;;;;;;;0.30;0.10;;;;;;;8.16;44.17;99477.17;1762611;78;21526;-50
2021/04/26 08:20:06;;;;;;;0.30;0.20;;;;;;;8.23;44.04;99471.47;1763558;79;22390;-51
2021/04/26 08:22:34;;;;;;;0.30;0.20;;;;;;;8.25;42.29;99481.64;1762076;80;21219;-51
2021/04/26 08:25:04;;;;;;;1.50;0.20;;;;;;;8.21;40.68;99480.05;1765235;78;21196;-50
2021/04/26 08:27:31;;;;;;;0.30;0.10;;;;;;;8.11;41.97;99484.05;1741703;80;21174;-50
2021/04/26 08:30:00;;;;;;;0.40;0.10;;;;;;;8.04;42.71;99494.63;1740038;81;21185;-51
2021/04/26 08:32:27;;;;;;;0.70;0.20;;;;;;;7.97;42.54;99489.13;1746631;79;21305;-51
2021/04/26 08:34:54;;;;;;;0.40;0.20;;;;;;;7.94;43.16;99495.95;1747468;79;22321;-51
2021/04/26 08:37:22;;;;;;;0.60;0.20;;;;;;;7.93;43.60;99485.69;1744570;79;21137;-52
2021/04/26 08:39:49;;;;;;;0.33;0.10;;;;;;;7.96;43.09;99488.26;1763561;80;21726;-52
2021/04/26 08:42:20;;;;;;;0.30;0.10;;;;;;;7.98;43.17;99505.16;1742680;79;21507;-51
2021/04/26 08:44:47;;;;;;;0.40;0.20;;;;;;;8.01;42.12;99489.85;1743612;80;21815;-51
2021/04/26 08:47:14;;;;;;;1.60;0.20;;;;;;;8.05;41.81;99499.06;1740094;79;21154;-52
2021/04/26 08:49:42;;;;;;;0.40;0.10;;;;;;;8.11;40.48;99488.07;1741597;79;21649;-51
2021/04/26 08:52:09;;;;;;;0.50;0.13;;;;;;;8.18;40.35;99485.99;1740831;80;21148;-52
2021/04/26 08:54:37;;;;;;;0.77;0.10;;;;;;;8.26;39.51;99486.06;1745373;79;21456;-51
2021/04/26 08:57:05;;;;;;;1.80;0.10;;;;;;;8.35;39.78;99484.37;1744355;79;21749;-52
2021/04/26 08:59:33;;;;;;;0.27;0.10;;;;;;;8.44;39.86;99484.91;1760809;78;21142;-52
2021/04/26 09:02:07;;;;;;;2.23;0.20;;;;;;;8.55;37.68;99495.58;1742581;79;21033;-51
2021/04/26 09:04:37;;;;;;;0.23;0.10;;;;;;;8.56;37.80;99494.64;1737972;79;21144;-52
2021/04/26 09:07:08;;;;;;;0.57;0.10;;;;;;;8.54;38.38;99502.34;1740634;79;21149;-52
2021/04/26 09:09:45;;;;;;;0.80;0.10;;;;;;;8.51;37.91;99505.15;1741837;79;22422;-52
2021/04/26 09:12:28;;;;;;;0.10;0.10;;;;;;;8.53;36.66;99493.89;1744815;80;21148;-52
2021/04/26 09:15:04;;;;;;;0.17;0.10;;;;;;;8.53;35.06;99491.20;1745396;79;21569;-51
2021/04/26 09:17:42;;;;;;;0.37;0.13;;;;;;;8.57;35.79;99487.47;1747103;79;20988;-52
2021/04/26 09:20:20;;;;;;;0.20;0.10;;;;;;;8.62;36.92;99489.46;1742705;79;21832;-52
2021/04/26 09:23:01;;;;;;;0.37;0.10;;;;;;;8.70;36.59;99478.78;1739831;79;22557;-52
2021/04/26 09:25:35;;;;;;;0.20;0.10;;;;;;;8.76;36.41;99492.89;1739364;79;21176;-52
2021/04/26 09:28:18;;;;;;;0.27;0.20;;;;;;;8.78;36.68;99489.64;1743774;80;21132;-52
2021/04/26 09:30:53;;;;;;;0.20;0.10;;;;;;;8.76;36.32;99491.08;1741341;79;21129;-51
2021/04/26 09:36:14;;;;;;;0.33;0.10;;;;;;;8.68;37.18;99496.76;1741305;79;21383;-52
2021/04/26 09:38:45;;;;;;;2.10;0.20;;;;;;;8.67;36.57;99496.86;1741483;79;21132;-51
2021/04/26 09:41:21;;;;;;;0.27;0.10;;;;;;;8.61;36.61;99503.81;1738431;79;21192;-53
2021/04/26 09:44:10;;;;;;;0.50;0.20;;;;;;;8.55;36.96;99504.09;1737276;79;21827;-50
2021/04/26 09:46:52;;;;;;;0.20;0.10;;;;;;;8.56;37.61;99503.16;1746757;80;21500;-51
2021/04/26 09:49:24;;;;;;;0.23;0.10;;;;;;;8.61;37.51;99495.30;1738055;79;21224;-52
2021/04/26 09:51:57;;;;;;;0.13;0.10;;;;;;;8.73;36.74;99501.94;1737599;80;21149;-51
2021/04/26 09:54:40;;;;;;;0.25;0.10;;;;;;;8.80;35.36;99483.27;1739414;80;21564;-51
2021/04/26 09:57:10;;;;;;;0.28;0.13;;;;;;;8.82;34.31;99486.77;1739002;80;21143;-52
2021/04/26 09:59:39;;;;;;;0.13;0.10;;;;;;;8.83;34.31;99491.20;1738272;79;21650;-52
2021/04/26 10:02:12;;;;;;;0.30;0.10;;;;;;;8.87;35.45;99495.47;1763564;78;22560;-51
2021/04/26 10:04:42;;;;;;;1.50;0.10;;;;;;;8.93;34.60;99497.03;1732764;80;21167;-51
2021/04/26 10:07:14;;;;;;;0.83;0.20;;;;;;;8.98;34.65;99497.20;1728900;80;21192;-51
2021/04/26 10:09:45;;;;;;;0.30;0.20;;;;;;;9.01;34.17;99497.08;1686422;81;21121;-52
2021/04/26 10:12:14;;;;;;;0.37;0.10;;;;;;;9.01;33.69;99497.08;1732979;80;21105;-52
2021/04/26 10:14:43;;;;;;;0.20;0.10;;;;;;;8.99;33.76;99497.61;1757030;79;21272;-51
2021/04/26 10:17:13;;;;;;;0.33;0.20;;;;;;;8.96;34.45;99499.08;1754737;78;21920;-54
2021/04/26 10:19:47;;;;;;;0.23;0.10;;;;;;;8.93;33.42;99503.73;1738724;80;21225;-50
2021/04/26 10:22:39;;;;;;;0.20;0.10;;;;;;;8.83;33.78;99501.06;1759249;78;21207;-51
2021/04/26 10:25:09;;;;;;;0.80;0.30;;;;;;;8.77;34.04;99512.05;1764625;79;21107;-51
2021/04/26 10:27:45;;;;;;;0.73;0.30;;;;;;;8.77;34.01;99504.87;1732439;80;21284;-51
2021/04/26 10:30:19;;;;;;;0.47;0.20;;;;;;;8.83;34.06;99505.09;1757389;79;21151;-50
2021/04/26 10:32:59;;;;;;;0.83;0.10;;;;;;;8.92;33.54;99504.20;1762729;79;21113;-52
2021/04/26 10:35:44;;;;;;;1.17;0.10;;;;;;;9.03;33.60;99501.88;1759777;79;21664;-51
2021/04/26 10:38:41;;;;;;;0.20;0.10;;;;;;;9.16;33.27;99502.67;1758383;79;21168;-51
2021/04/26 10:41:14;;;;;;;0.50;0.10;;;;;;;9.29;33.57;99503.36;1759717;78;21933;-52
2021/04/26 10:43:42;;;;;;;0.77;0.20;;;;;;;9.44;33.44;99497.25;1760197;78;21465;-51
2021/04/26 10:46:20;;;;;;;0.20;0.10;;;;;;;9.47;33.33;99489.53;1684260;80;21127;-51
2021/04/26 10:49:09;;;;;;;0.20;0.10;;;;;;;9.47;33.75;99494.44;1754868;79;21160;-51
2021/04/26 10:51:38;;;;;;;0.30;0.20;;;;;;;9.48;32.78;99496.65;1748152;79;21164;-51
2021/04/26 10:54:06;;;;;;;0.10;0.10;;;;;;;9.38;33.58;99502.05;1747567;79;21260;-52
2021/04/26 10:56:36;;;;;;;0.20;0.10;;;;;;;9.33;33.66;99494.70;1748559;79;21209;-52
2021/04/26 10:59:21;;;;;;;0.20;0.10;;;;;;;9.28;33.74;99505.64;1727798;81;21191;-52
2021/04/26 11:01:50;;;;;;;;;;;;;;;9.22;33.56;99500.56;1750055;79;21215;-51
2021/04/26 11:04:17;;;;;;;1.53;0.10;;;;;;;9.19;33.45;99499.35;1744828;79;20280;-51
2021/04/26 11:07:20;;;;;;;0.20;0.10;;;;;;;9.12;31.72;99495.22;1744896;79;22242;-51
2021/04/26 11:09:47;;;;;;;0.20;0.10;;;;;;;9.05;32.00;99497.79;1748187;79;21212;-52
2021/04/26 11:12:32;;;;;;;0.20;0.10;;;;;;;9.01;32.18;99497.55;1744571;79;21167;-52
2021/04/26 11:15:20;;;;;;;0.20;0.10;;;;;;;9.03;32.92;99492.48;1748241;79;21621;-53
2021/04/26 11:17:47;;;;;;;0.27;0.10;;;;;;;9.08;33.40;99497.19;1746713;79;21639;-51
2021/04/26 11:20:23;;;;;;;0.63;0.20;;;;;;;9.11;32.82;99498.37;1746652;79;22240;-52
2021/04/26 11:22:53;;;;;;;0.30;0.20;;;;;;;9.15;33.37;99503.14;1741879;79;21220;-53
2021/04/26 11:25:39;;;;;;;0.20;0.10;;;;;;;9.21;34.08;99499.29;1741644;79;21459;-52
2021/04/26 11:28:09;;;;;;;0.20;0.17;;;;;;;9.22;33.16;99497.87;1714173;81;21625;-52
2021/04/26 11:30:37;;;;;;;0.30;0.20;;;;;;;9.19;33.20;99502.51;1733868;79;21552;-51
2021/04/26 11:33:11;;;;;;;0.20;0.10;;;;;;;9.22;33.18;99499.69;1743623;79;21496;-52
2021/04/26 11:36:14;;;;;;;0.40;0.20;;;;;;;9.25;32.82;99495.53;1747133;79;21160;-52
2021/04/26 11:38:41;;;;;;;0.20;0.10;;;;;;;9.34;34.21;99490.60;1744017;79;21125;-52
2021/04/26 11:41:09;;;;;;;0.87;0.10;;;;;;;9.52;34.75;99490.20;1746580;79;21124;-52
2021/04/26 11:43:46;;;;;;;0.30;0.10;;;;;;;9.67;34.25;99485.89;1747523;79;21162;-52
2021/04/26 11:46:14;;;;;;;0.20;0.10;;;;;;;9.74;34.10;99485.98;1748678;79;21456;-52
2021/04/26 11:48:41;;;;;;;0.60;0.20;;;;;;;9.80;34.06;99488.36;1730114;80;21160;-52
2021/04/26 11:51:09;;;;;;;0.50;0.30;;;;;;;9.80;33.68;99497.30;1734379;80;21110;-53
2021/04/26 11:53:36;;;;;;;0.90;0.20;;;;;;;9.78;33.49;99495.16;1732445;80;21225;-54
2021/04/26 11:56:12;;;;;;;0.30;0.20;;;;;;;9.73;33.27;99502.58;1740148;79;21648;-53
2021/04/26 11:58:39;;;;;;;1.90;0.13;;;;;;;9.59;33.23;99501.05;1741287;80;21274;-51
2021/04/26 12:01:11;;;;;;;0.30;0.20;;;;;;;9.41;34.04;99500.11;1739286;79;21319;-52
2021/04/26 12:03:56;;;;;;;1.17;0.10;;;;;;;9.32;34.47;99501.88;1741886;79;21437;-52
2021/04/26 12:06:25;;;;;;;0.20;0.10;;;;;;;9.29;34.85;99493.95;1736851;79;21133;-52